sensor_id;sensor_type;location;lat;lon;timestamp;P1;durP1;ratioP1;P2;durP2;ratioP2
49758;SDS011;70329;45.524;10.194;2023-07-30T00:02:15;7.18;;;3.67;;
49758;SDS011;70329;45.524;10.194;2023-07-30T00:04:41;8.88;;;4.18;;
49758;SDS011;70329;45.524;10.194;2023-07-30T00:07:07;10.18;;;4.40;;
49758;SDS011;70329;45.524;10.194;2023-07-30T00:09:32;8.73;;;4.33;;
49758;SDS011;70329;45.524;10.194;2023-07-30T00:11:58;7.47;;;3.80;;
49758;SDS011;70329;45.524;10.194;2023-07-30T00:14:23;6.93;;;4.10;;
49758;SDS011;70329;45.524;10.194;2023-07-30T00:16:48;7.03;;;4.10;;
49758;SDS011;70329;45.524;10.194;2023-07-30T00:19:14;6.90;;;4.47;;
49758;SDS011;70329;45.524;10.194;2023-07-30T00:21:39;9.03;;;4.40;;
49758;SDS011;70329;45.524;10.194;2023-07-30T00:24:04;6.97;;;4.57;;
49758;SDS011;70329;45.524;10.194;2023-07-30T00:26:30;7.43;;;4.30;;
49758;SDS011;70329;45.524;10.194;2023-07-30T00:28:55;7.43;;;4.50;;
49758;SDS011;70329;45.524;10.194;2023-07-30T00:31:21;9.30;;;5.13;;
49758;SDS011;70329;45.524;10.194;2023-07-30T00:33:46;7.95;;;4.80;;
49758;SDS011;70329;45.524;10.194;2023-07-30T00:36:11;7.60;;;4.57;;
49758;SDS011;70329;45.524;10.194;2023-07-30T00:38:37;7.35;;;4.90;;
49758;SDS011;70329;45.524;10.194;2023-07-30T00:41:02;12.70;;;4.83;;
49758;SDS011;70329;45.524;10.194;2023-07-30T00:43:27;9.43;;;5.23;;
49758;SDS011;70329;45.524;10.194;2023-07-30T00:45:53;8.80;;;5.07;;
49758;SDS011;70329;45.524;10.194;2023-07-30T00:48:19;7.93;;;4.88;;
49758;SDS011;70329;45.524;10.194;2023-07-30T00:50:44;11.07;;;6.17;;
49758;SDS011;70329;45.524;10.194;2023-07-30T00:53:09;9.90;;;5.27;;
49758;SDS011;70329;45.524;10.194;2023-07-30T00:55:39;9.05;;;5.20;;
49758;SDS011;70329;45.524;10.194;2023-07-30T00:58:04;16.98;;;5.65;;
49758;SDS011;70329;45.524;10.194;2023-07-30T01:00:30;9.35;;;5.60;;
49758;SDS011;70329;45.524;10.194;2023-07-30T01:02:56;10.70;;;5.93;;
49758;SDS011;70329;45.524;10.194;2023-07-30T01:05:22;8.13;;;5.20;;
49758;SDS011;70329;45.524;10.194;2023-07-30T01:07:47;8.75;;;5.43;;
49758;SDS011;70329;45.524;10.194;2023-07-30T01:10:13;15.13;;;7.18;;
49758;SDS011;70329;45.524;10.194;2023-07-30T01:12:40;10.38;;;6.72;;
49758;SDS011;70329;45.524;10.194;2023-07-30T01:15:07;11.23;;;6.80;;
49758;SDS011;70329;45.524;10.194;2023-07-30T01:17:34;11.13;;;6.72;;
49758;SDS011;70329;45.524;10.194;2023-07-30T01:20:00;10.50;;;6.32;;
49758;SDS011;70329;45.524;10.194;2023-07-30T01:22:25;9.53;;;6.23;;
49758;SDS011;70329;45.524;10.194;2023-07-30T01:24:50;10.77;;;6.07;;
49758;SDS011;70329;45.524;10.194;2023-07-30T01:27:19;11.48;;;6.07;;
49758;SDS011;70329;45.524;10.194;2023-07-30T01:29:53;9.52;;;5.85;;
49758;SDS011;70329;45.524;10.194;2023-07-30T01:32:25;12.40;;;6.35;;
49758;SDS011;70329;45.524;10.194;2023-07-30T01:34:53;8.77;;;6.07;;
49758;SDS011;70329;45.524;10.194;2023-07-30T01:37:20;9.73;;;6.40;;
49758;SDS011;70329;45.524;10.194;2023-07-30T01:39:45;8.13;;;5.72;;
49758;SDS011;70329;45.524;10.194;2023-07-30T01:42:13;9.40;;;5.35;;
49758;SDS011;70329;45.524;10.194;2023-07-30T01:44:39;10.55;;;6.35;;
49758;SDS011;70329;45.524;10.194;2023-07-30T01:47:04;8.67;;;6.13;;
49758;SDS011;70329;45.524;10.194;2023-07-30T01:49:29;10.52;;;7.13;;
49758;SDS011;70329;45.524;10.194;2023-07-30T01:51:55;9.07;;;6.23;;
49758;SDS011;70329;45.524;10.194;2023-07-30T01:54:20;10.77;;;7.00;;
49758;SDS011;70329;45.524;10.194;2023-07-30T01:56:46;10.50;;;6.30;;
49758;SDS011;70329;45.524;10.194;2023-07-30T01:59:11;14.53;;;6.67;;
49758;SDS011;70329;45.524;10.194;2023-07-30T02:01:36;10.27;;;6.67;;
49758;SDS011;70329;45.524;10.194;2023-07-30T02:04:02;12.73;;;7.13;;
49758;SDS011;70329;45.524;10.194;2023-07-30T02:06:27;9.97;;;6.33;;
49758;SDS011;70329;45.524;10.194;2023-07-30T02:08:52;9.93;;;7.10;;
49758;SDS011;70329;45.524;10.194;2023-07-30T02:11:18;10.23;;;6.83;;
49758;SDS011;70329;45.524;10.194;2023-07-30T02:13:43;7.43;;;5.83;;
49758;SDS011;70329;45.524;10.194;2023-07-30T02:16:08;8.30;;;6.20;;
49758;SDS011;70329;45.524;10.194;2023-07-30T02:18:34;7.83;;;6.07;;
49758;SDS011;70329;45.524;10.194;2023-07-30T02:20:59;11.33;;;7.03;;
49758;SDS011;70329;45.524;10.194;2023-07-30T02:23:24;9.43;;;6.90;;
49758;SDS011;70329;45.524;10.194;2023-07-30T02:25:50;10.68;;;8.05;;
49758;SDS011;70329;45.524;10.194;2023-07-30T02:28:15;12.70;;;8.10;;
49758;SDS011;70329;45.524;10.194;2023-07-30T02:30:41;10.40;;;7.25;;
49758;SDS011;70329;45.524;10.194;2023-07-30T02:33:06;13.43;;;8.33;;
49758;SDS011;70329;45.524;10.194;2023-07-30T02:35:32;10.93;;;7.97;;
49758;SDS011;70329;45.524;10.194;2023-07-30T02:37:57;8.53;;;7.03;;
49758;SDS011;70329;45.524;10.194;2023-07-30T02:40:22;11.23;;;8.27;;
49758;SDS011;70329;45.524;10.194;2023-07-30T02:42:48;10.70;;;7.17;;
49758;SDS011;70329;45.524;10.194;2023-07-30T02:45:13;11.83;;;8.10;;
49758;SDS011;70329;45.524;10.194;2023-07-30T02:47:38;14.00;;;9.43;;
49758;SDS011;70329;45.524;10.194;2023-07-30T02:50:04;14.23;;;10.20;;
49758;SDS011;70329;45.524;10.194;2023-07-30T02:52:30;18.48;;;10.75;;
49758;SDS011;70329;45.524;10.194;2023-07-30T02:54:56;12.50;;;9.20;;
49758;SDS011;70329;45.524;10.194;2023-07-30T02:57:21;15.27;;;10.27;;
49758;SDS011;70329;45.524;10.194;2023-07-30T02:59:47;14.90;;;10.63;;
49758;SDS011;70329;45.524;10.194;2023-07-30T03:02:12;14.32;;;10.43;;
49758;SDS011;70329;45.524;10.194;2023-07-30T03:04:38;14.43;;;10.13;;
49758;SDS011;70329;45.524;10.194;2023-07-30T03:07:03;12.25;;;9.30;;
49758;SDS011;70329;45.524;10.194;2023-07-30T03:09:29;14.90;;;9.52;;
49758;SDS011;70329;45.524;10.194;2023-07-30T03:11:54;15.80;;;8.63;;
49758;SDS011;70329;45.524;10.194;2023-07-30T03:14:20;13.27;;;8.25;;
49758;SDS011;70329;45.524;10.194;2023-07-30T03:16:46;11.18;;;7.82;;
49758;SDS011;70329;45.524;10.194;2023-07-30T03:19:12;11.50;;;7.70;;
49758;SDS011;70329;45.524;10.194;2023-07-30T03:21:37;13.35;;;7.13;;
49758;SDS011;70329;45.524;10.194;2023-07-30T03:24:03;9.93;;;6.37;;
49758;SDS011;70329;45.524;10.194;2023-07-30T03:26:28;10.07;;;5.22;;
49758;SDS011;70329;45.524;10.194;2023-07-30T03:28:54;7.43;;;4.30;;
49758;SDS011;70329;45.524;10.194;2023-07-30T03:31:19;10.67;;;4.60;;
49758;SDS011;70329;45.524;10.194;2023-07-30T03:33:44;6.73;;;4.17;;
49758;SDS011;70329;45.524;10.194;2023-07-30T03:38:36;5.47;;;3.83;;
49758;SDS011;70329;45.524;10.194;2023-07-30T03:41:02;5.70;;;3.88;;
49758;SDS011;70329;45.524;10.194;2023-07-30T03:43:29;5.60;;;3.58;;
49758;SDS011;70329;45.524;10.194;2023-07-30T03:45:54;7.37;;;3.70;;
49758;SDS011;70329;45.524;10.194;2023-07-30T03:48:19;7.00;;;3.83;;
49758;SDS011;70329;45.524;10.194;2023-07-30T03:50:45;5.43;;;3.60;;
49758;SDS011;70329;45.524;10.194;2023-07-30T03:53:10;5.43;;;3.67;;
49758;SDS011;70329;45.524;10.194;2023-07-30T03:55:36;4.90;;;3.78;;
49758;SDS011;70329;45.524;10.194;2023-07-30T03:58:01;11.47;;;4.03;;
49758;SDS011;70329;45.524;10.194;2023-07-30T04:00:27;4.87;;;3.50;;
49758;SDS011;70329;45.524;10.194;2023-07-30T04:02:54;5.47;;;3.90;;
49758;SDS011;70329;45.524;10.194;2023-07-30T04:05:19;7.80;;;3.90;;
49758;SDS011;70329;45.524;10.194;2023-07-30T04:07:45;5.50;;;3.67;;
49758;SDS011;70329;45.524;10.194;2023-07-30T04:10:10;8.87;;;3.87;;
49758;SDS011;70329;45.524;10.194;2023-07-30T04:12:35;5.43;;;3.43;;
49758;SDS011;70329;45.524;10.194;2023-07-30T04:15:01;6.27;;;3.30;;
49758;SDS011;70329;45.524;10.194;2023-07-30T04:17:26;6.00;;;3.37;;
49758;SDS011;70329;45.524;10.194;2023-07-30T04:19:51;5.50;;;3.37;;
49758;SDS011;70329;45.524;10.194;2023-07-30T04:22:17;5.23;;;3.00;;
49758;SDS011;70329;45.524;10.194;2023-07-30T04:24:42;6.10;;;3.30;;
49758;SDS011;70329;45.524;10.194;2023-07-30T04:27:08;6.30;;;3.30;;
49758;SDS011;70329;45.524;10.194;2023-07-30T04:29:33;4.83;;;3.10;;
49758;SDS011;70329;45.524;10.194;2023-07-30T04:31:58;6.23;;;4.20;;
49758;SDS011;70329;45.524;10.194;2023-07-30T04:34:24;11.83;;;4.13;;
49758;SDS011;70329;45.524;10.194;2023-07-30T04:36:49;7.53;;;3.77;;
49758;SDS011;70329;45.524;10.194;2023-07-30T04:39:14;4.57;;;3.30;;
49758;SDS011;70329;45.524;10.194;2023-07-30T04:41:40;6.37;;;3.17;;
49758;SDS011;70329;45.524;10.194;2023-07-30T04:44:05;4.93;;;3.70;;
49758;SDS011;70329;45.524;10.194;2023-07-30T04:46:30;6.70;;;3.53;;
49758;SDS011;70329;45.524;10.194;2023-07-30T04:48:58;9.07;;;3.88;;
49758;SDS011;70329;45.524;10.194;2023-07-30T04:51:23;11.50;;;3.77;;
49758;SDS011;70329;45.524;10.194;2023-07-30T04:53:48;5.07;;;3.30;;
49758;SDS011;70329;45.524;10.194;2023-07-30T04:56:14;5.67;;;3.73;;
49758;SDS011;70329;45.524;10.194;2023-07-30T04:58:39;10.23;;;4.80;;
49758;SDS011;70329;45.524;10.194;2023-07-30T05:01:04;9.27;;;6.00;;
49758;SDS011;70329;45.524;10.194;2023-07-30T05:03:30;7.83;;;4.93;;
49758;SDS011;70329;45.524;10.194;2023-07-30T05:05:55;11.20;;;5.97;;
49758;SDS011;70329;45.524;10.194;2023-07-30T05:08:20;10.27;;;5.53;;
49758;SDS011;70329;45.524;10.194;2023-07-30T05:10:46;11.73;;;7.40;;
49758;SDS011;70329;45.524;10.194;2023-07-30T05:13:11;10.17;;;6.57;;
49758;SDS011;70329;45.524;10.194;2023-07-30T05:15:38;10.88;;;5.82;;
49758;SDS011;70329;45.524;10.194;2023-07-30T05:18:03;10.57;;;6.72;;
49758;SDS011;70329;45.524;10.194;2023-07-30T05:20:29;11.90;;;7.73;;
49758;SDS011;70329;45.524;10.194;2023-07-30T05:22:54;14.32;;;8.95;;
49758;SDS011;70329;45.524;10.194;2023-07-30T05:25:20;18.17;;;8.53;;
49758;SDS011;70329;45.524;10.194;2023-07-30T05:27:45;11.87;;;8.13;;
49758;SDS011;70329;45.524;10.194;2023-07-30T05:30:10;10.97;;;8.23;;
49758;SDS011;70329;45.524;10.194;2023-07-30T05:32:36;11.80;;;5.65;;
49758;SDS011;70329;45.524;10.194;2023-07-30T05:35:01;4.32;;;3.05;;
49758;SDS011;70329;45.524;10.194;2023-07-30T05:39:52;7.32;;;2.90;;
49758;SDS011;70329;45.524;10.194;2023-07-30T05:42:17;4.20;;;2.22;;
49758;SDS011;70329;45.524;10.194;2023-07-30T05:44:43;4.40;;;2.35;;
49758;SDS011;70329;45.524;10.194;2023-07-30T05:47:08;6.65;;;2.55;;
49758;SDS011;70329;45.524;10.194;2023-07-30T05:49:33;4.82;;;2.42;;
49758;SDS011;70329;45.524;10.194;2023-07-30T05:51:59;4.43;;;2.38;;
49758;SDS011;70329;45.524;10.194;2023-07-30T05:54:24;6.90;;;2.33;;
49758;SDS011;70329;45.524;10.194;2023-07-30T05:56:49;4.40;;;2.78;;
49758;SDS011;70329;45.524;10.194;2023-07-30T05:59:16;5.95;;;3.05;;
49758;SDS011;70329;45.524;10.194;2023-07-30T06:01:41;7.32;;;2.80;;
49758;SDS011;70329;45.524;10.194;2023-07-30T06:04:07;5.10;;;2.60;;
49758;SDS011;70329;45.524;10.194;2023-07-30T06:06:32;8.07;;;2.83;;
49758;SDS011;70329;45.524;10.194;2023-07-30T06:08:57;5.03;;;2.53;;
49758;SDS011;70329;45.524;10.194;2023-07-30T06:11:25;6.25;;;2.70;;
49758;SDS011;70329;45.524;10.194;2023-07-30T06:13:51;8.60;;;3.15;;
49758;SDS011;70329;45.524;10.194;2023-07-30T06:16:18;8.30;;;3.67;;
49758;SDS011;70329;45.524;10.194;2023-07-30T06:18:46;6.70;;;3.50;;
49758;SDS011;70329;45.524;10.194;2023-07-30T06:21:11;5.60;;;2.70;;
49758;SDS011;70329;45.524;10.194;2023-07-30T06:23:37;5.72;;;2.50;;
49758;SDS011;70329;45.524;10.194;2023-07-30T06:26:03;3.20;;;2.30;;
49758;SDS011;70329;45.524;10.194;2023-07-30T06:28:28;4.45;;;2.17;;
49758;SDS011;70329;45.524;10.194;2023-07-30T06:30:54;3.00;;;2.17;;
49758;SDS011;70329;45.524;10.194;2023-07-30T06:33:19;5.20;;;2.20;;
49758;SDS011;70329;45.524;10.194;2023-07-30T06:35:45;4.38;;;2.33;;
49758;SDS011;70329;45.524;10.194;2023-07-30T06:38:10;3.22;;;2.10;;
49758;SDS011;70329;45.524;10.194;2023-07-30T06:40:35;2.72;;;2.30;;
49758;SDS011;70329;45.524;10.194;2023-07-30T06:43:02;4.60;;;2.28;;
49758;SDS011;70329;45.524;10.194;2023-07-30T06:45:29;5.72;;;2.85;;
49758;SDS011;70329;45.524;10.194;2023-07-30T06:47:54;3.55;;;3.10;;
49758;SDS011;70329;45.524;10.194;2023-07-30T06:50:19;6.63;;;3.03;;
49758;SDS011;70329;45.524;10.194;2023-07-30T06:52:45;3.80;;;2.88;;
49758;SDS011;70329;45.524;10.194;2023-07-30T06:55:10;8.52;;;3.65;;
49758;SDS011;70329;45.524;10.194;2023-07-30T06:57:35;4.72;;;3.58;;
49758;SDS011;70329;45.524;10.194;2023-07-30T07:00:01;8.43;;;3.92;;
49758;SDS011;70329;45.524;10.194;2023-07-30T07:02:27;5.03;;;3.65;;
49758;SDS011;70329;45.524;10.194;2023-07-30T07:04:53;13.10;;;3.30;;
49758;SDS011;70329;45.524;10.194;2023-07-30T07:07:19;5.63;;;3.22;;
49758;SDS011;70329;45.524;10.194;2023-07-30T07:09:44;8.63;;;2.92;;
49758;SDS011;70329;45.524;10.194;2023-07-30T07:12:10;5.15;;;2.53;;
49758;SDS011;70329;45.524;10.194;2023-07-30T07:14:35;3.45;;;2.80;;
49758;SDS011;70329;45.524;10.194;2023-07-30T07:17:00;4.82;;;2.72;;
49758;SDS011;70329;45.524;10.194;2023-07-30T07:19:26;4.63;;;2.92;;
49758;SDS011;70329;45.524;10.194;2023-07-30T07:21:51;6.25;;;3.13;;
49758;SDS011;70329;45.524;10.194;2023-07-30T07:24:16;4.30;;;3.03;;
49758;SDS011;70329;45.524;10.194;2023-07-30T07:26:42;3.90;;;2.80;;
49758;SDS011;70329;45.524;10.194;2023-07-30T07:29:07;6.88;;;3.35;;
49758;SDS011;70329;45.524;10.194;2023-07-30T07:31:33;5.47;;;2.90;;
49758;SDS011;70329;45.524;10.194;2023-07-30T07:33:58;4.75;;;2.85;;
49758;SDS011;70329;45.524;10.194;2023-07-30T07:36:23;5.30;;;2.80;;
49758;SDS011;70329;45.524;10.194;2023-07-30T07:38:49;3.85;;;3.17;;
49758;SDS011;70329;45.524;10.194;2023-07-30T07:41:15;6.78;;;3.25;;
49758;SDS011;70329;45.524;10.194;2023-07-30T07:43:41;5.28;;;3.00;;
49758;SDS011;70329;45.524;10.194;2023-07-30T07:46:07;5.30;;;3.30;;
49758;SDS011;70329;45.524;10.194;2023-07-30T07:48:38;5.93;;;3.35;;
49758;SDS011;70329;45.524;10.194;2023-07-30T07:51:08;8.02;;;3.38;;
49758;SDS011;70329;45.524;10.194;2023-07-30T07:53:37;4.05;;;2.85;;
49758;SDS011;70329;45.524;10.194;2023-07-30T07:56:03;5.10;;;3.20;;
49758;SDS011;70329;45.524;10.194;2023-07-30T07:58:28;4.10;;;2.97;;
49758;SDS011;70329;45.524;10.194;2023-07-30T08:00:54;6.65;;;3.35;;
49758;SDS011;70329;45.524;10.194;2023-07-30T08:03:20;4.78;;;3.00;;
49758;SDS011;70329;45.524;10.194;2023-07-30T08:05:46;7.10;;;4.03;;
49758;SDS011;70329;45.524;10.194;2023-07-30T08:08:13;5.82;;;3.63;;
49758;SDS011;70329;45.524;10.194;2023-07-30T08:10:39;7.57;;;3.60;;
49758;SDS011;70329;45.524;10.194;2023-07-30T08:13:06;4.88;;;3.35;;
49758;SDS011;70329;45.524;10.194;2023-07-30T08:15:32;5.07;;;3.40;;
49758;SDS011;70329;45.524;10.194;2023-07-30T08:17:57;5.90;;;3.97;;
49758;SDS011;70329;45.524;10.194;2023-07-30T08:20:23;5.90;;;3.40;;
49758;SDS011;70329;45.524;10.194;2023-07-30T08:22:48;6.68;;;3.80;;
49758;SDS011;70329;45.524;10.194;2023-07-30T08:25:13;4.95;;;3.63;;
49758;SDS011;70329;45.524;10.194;2023-07-30T08:27:39;5.57;;;3.63;;
49758;SDS011;70329;45.524;10.194;2023-07-30T08:30:04;6.32;;;4.05;;
49758;SDS011;70329;45.524;10.194;2023-07-30T08:32:30;6.75;;;4.28;;
49758;SDS011;70329;45.524;10.194;2023-07-30T08:34:58;8.40;;;4.10;;
49758;SDS011;70329;45.524;10.194;2023-07-30T08:37:23;6.38;;;4.50;;
49758;SDS011;70329;45.524;10.194;2023-07-30T08:39:48;8.30;;;4.90;;
49758;SDS011;70329;45.524;10.194;2023-07-30T08:42:14;7.28;;;4.53;;
49758;SDS011;70329;45.524;10.194;2023-07-30T08:44:40;9.27;;;4.85;;
49758;SDS011;70329;45.524;10.194;2023-07-30T08:47:05;8.63;;;4.15;;
49758;SDS011;70329;45.524;10.194;2023-07-30T08:49:31;7.97;;;4.65;;
49758;SDS011;70329;45.524;10.194;2023-07-30T08:51:58;7.05;;;4.38;;
49758;SDS011;70329;45.524;10.194;2023-07-30T08:54:24;5.72;;;3.90;;
49758;SDS011;70329;45.524;10.194;2023-07-30T08:56:54;9.30;;;4.40;;
49758;SDS011;70329;45.524;10.194;2023-07-30T08:59:19;6.53;;;4.00;;
49758;SDS011;70329;45.524;10.194;2023-07-30T09:01:47;8.60;;;4.28;;
49758;SDS011;70329;45.524;10.194;2023-07-30T09:04:17;9.10;;;4.50;;
49758;SDS011;70329;45.524;10.194;2023-07-30T09:06:43;8.27;;;4.85;;
49758;SDS011;70329;45.524;10.194;2023-07-30T09:09:09;6.88;;;3.38;;
49758;SDS011;70329;45.524;10.194;2023-07-30T09:11:36;4.97;;;3.17;;
49758;SDS011;70329;45.524;10.194;2023-07-30T09:14:02;7.68;;;3.60;;
49758;SDS011;70329;45.524;10.194;2023-07-30T09:16:28;4.38;;;3.15;;
49758;SDS011;70329;45.524;10.194;2023-07-30T09:18:53;5.38;;;3.22;;
49758;SDS011;70329;45.524;10.194;2023-07-30T09:21:19;4.70;;;3.40;;
49758;SDS011;70329;45.524;10.194;2023-07-30T09:23:54;4.63;;;2.90;;
49758;SDS011;70329;45.524;10.194;2023-07-30T09:26:19;5.43;;;2.92;;
49758;SDS011;70329;45.524;10.194;2023-07-30T09:28:44;8.60;;;2.35;;
49758;SDS011;70329;45.524;10.194;2023-07-30T09:31:10;5.20;;;3.40;;
49758;SDS011;70329;45.524;10.194;2023-07-30T09:33:39;4.35;;;2.95;;
49758;SDS011;70329;45.524;10.194;2023-07-30T09:36:06;5.38;;;3.42;;
49758;SDS011;70329;45.524;10.194;2023-07-30T09:38:33;5.53;;;3.40;;
49758;SDS011;70329;45.524;10.194;2023-07-30T09:41:04;4.32;;;3.10;;
49758;SDS011;70329;45.524;10.194;2023-07-30T09:43:31;11.80;;;4.18;;
49758;SDS011;70329;45.524;10.194;2023-07-30T09:46:04;8.00;;;3.53;;
49758;SDS011;70329;45.524;10.194;2023-07-30T09:48:31;8.00;;;3.38;;
49758;SDS011;70329;45.524;10.194;2023-07-30T09:51:04;9.15;;;3.90;;
49758;SDS011;70329;45.524;10.194;2023-07-30T09:53:31;6.60;;;3.72;;
49758;SDS011;70329;45.524;10.194;2023-07-30T09:56:03;7.72;;;3.50;;
49758;SDS011;70329;45.524;10.194;2023-07-30T09:58:30;5.18;;;3.95;;
49758;SDS011;70329;45.524;10.194;2023-07-30T10:00:57;6.82;;;3.60;;
49758;SDS011;70329;45.524;10.194;2023-07-30T10:03:24;7.43;;;3.92;;
49758;SDS011;70329;45.524;10.194;2023-07-30T10:05:50;7.22;;;4.72;;
49758;SDS011;70329;45.524;10.194;2023-07-30T10:08:21;5.78;;;4.13;;
49758;SDS011;70329;45.524;10.194;2023-07-30T10:10:49;6.13;;;3.80;;
49758;SDS011;70329;45.524;10.194;2023-07-30T10:13:19;9.68;;;4.15;;
49758;SDS011;70329;45.524;10.194;2023-07-30T10:15:47;4.97;;;3.40;;
49758;SDS011;70329;45.524;10.194;2023-07-30T10:18:14;9.07;;;4.25;;
49758;SDS011;70329;45.524;10.194;2023-07-30T10:20:39;8.23;;;3.65;;
49758;SDS011;70329;45.524;10.194;2023-07-30T10:23:06;13.02;;;5.20;;
49758;SDS011;70329;45.524;10.194;2023-07-30T10:25:47;7.07;;;4.20;;
49758;SDS011;70329;45.524;10.194;2023-07-30T10:31:11;5.30;;;4.07;;
49758;SDS011;70329;45.524;10.194;2023-07-30T10:33:44;9.93;;;4.30;;
49758;SDS011;70329;45.524;10.194;2023-07-30T10:36:12;5.05;;;3.47;;
49758;SDS011;70329;45.524;10.194;2023-07-30T10:38:38;5.80;;;3.45;;
49758;SDS011;70329;45.524;10.194;2023-07-30T10:41:08;8.23;;;4.05;;
49758;SDS011;70329;45.524;10.194;2023-07-30T10:43:48;7.38;;;4.25;;
49758;SDS011;70329;45.524;10.194;2023-07-30T10:46:16;8.07;;;4.25;;
49758;SDS011;70329;45.524;10.194;2023-07-30T10:48:43;8.82;;;4.18;;
49758;SDS011;70329;45.524;10.194;2023-07-30T10:51:14;7.78;;;4.00;;
49758;SDS011;70329;45.524;10.194;2023-07-30T10:53:44;6.35;;;4.22;;
49758;SDS011;70329;45.524;10.194;2023-07-30T10:56:11;6.10;;;4.13;;
49758;SDS011;70329;45.524;10.194;2023-07-30T10:58:37;7.55;;;3.58;;
49758;SDS011;70329;45.524;10.194;2023-07-30T11:01:03;5.82;;;4.10;;
49758;SDS011;70329;45.524;10.194;2023-07-30T11:03:32;6.38;;;4.20;;
49758;SDS011;70329;45.524;10.194;2023-07-30T11:06:00;6.78;;;3.67;;
49758;SDS011;70329;45.524;10.194;2023-07-30T11:11:09;6.18;;;4.00;;
49758;SDS011;70329;45.524;10.194;2023-07-30T11:13:43;7.75;;;4.18;;
49758;SDS011;70329;45.524;10.194;2023-07-30T11:16:15;7.03;;;3.80;;
49758;SDS011;70329;45.524;10.194;2023-07-30T11:18:41;7.22;;;4.10;;
49758;SDS011;70329;45.524;10.194;2023-07-30T11:21:10;7.63;;;4.00;;
49758;SDS011;70329;45.524;10.194;2023-07-30T11:23:39;9.85;;;4.05;;
49758;SDS011;70329;45.524;10.194;2023-07-30T11:26:09;9.43;;;4.32;;
49758;SDS011;70329;45.524;10.194;2023-07-30T11:28:38;5.10;;;4.20;;
49758;SDS011;70329;45.524;10.194;2023-07-30T11:33:32;7.95;;;3.80;;
49758;SDS011;70329;45.524;10.194;2023-07-30T11:36:00;9.93;;;4.00;;
49758;SDS011;70329;45.524;10.194;2023-07-30T11:38:27;7.47;;;3.88;;
49758;SDS011;70329;45.524;10.194;2023-07-30T11:40:53;6.13;;;3.83;;
49758;SDS011;70329;45.524;10.194;2023-07-30T11:43:20;7.15;;;4.15;;
49758;SDS011;70329;45.524;10.194;2023-07-30T11:45:46;6.65;;;4.10;;
49758;SDS011;70329;45.524;10.194;2023-07-30T11:48:12;5.82;;;3.88;;
49758;SDS011;70329;45.524;10.194;2023-07-30T11:50:47;6.72;;;4.00;;
49758;SDS011;70329;45.524;10.194;2023-07-30T11:53:14;6.75;;;3.72;;
49758;SDS011;70329;45.524;10.194;2023-07-30T11:55:40;5.10;;;3.88;;
49758;SDS011;70329;45.524;10.194;2023-07-30T11:58:07;5.10;;;3.63;;
49758;SDS011;70329;45.524;10.194;2023-07-30T12:00:37;5.22;;;3.78;;
49758;SDS011;70329;45.524;10.194;2023-07-30T12:03:05;5.47;;;3.83;;
49758;SDS011;70329;45.524;10.194;2023-07-30T12:05:36;6.97;;;4.05;;
49758;SDS011;70329;45.524;10.194;2023-07-30T12:08:02;6.90;;;3.95;;
49758;SDS011;70329;45.524;10.194;2023-07-30T12:10:49;6.13;;;3.55;;
49758;SDS011;70329;45.524;10.194;2023-07-30T12:13:15;6.67;;;4.47;;
49758;SDS011;70329;45.524;10.194;2023-07-30T12:15:43;5.18;;;3.53;;
49758;SDS011;70329;45.524;10.194;2023-07-30T12:18:09;4.93;;;3.60;;
49758;SDS011;70329;45.524;10.194;2023-07-30T12:20:34;6.40;;;4.35;;
49758;SDS011;70329;45.524;10.194;2023-07-30T12:23:00;8.55;;;4.65;;
49758;SDS011;70329;45.524;10.194;2023-07-30T12:25:28;6.25;;;3.65;;
49758;SDS011;70329;45.524;10.194;2023-07-30T12:27:53;6.28;;;4.18;;
49758;SDS011;70329;45.524;10.194;2023-07-30T12:30:19;5.82;;;3.88;;
49758;SDS011;70329;45.524;10.194;2023-07-30T12:32:44;5.35;;;3.83;;
49758;SDS011;70329;45.524;10.194;2023-07-30T12:35:09;5.13;;;3.60;;
49758;SDS011;70329;45.524;10.194;2023-07-30T12:37:35;6.38;;;3.58;;
49758;SDS011;70329;45.524;10.194;2023-07-30T12:40:01;7.22;;;3.65;;
49758;SDS011;70329;45.524;10.194;2023-07-30T12:42:28;6.65;;;4.10;;
49758;SDS011;70329;45.524;10.194;2023-07-30T12:44:53;6.30;;;4.00;;
49758;SDS011;70329;45.524;10.194;2023-07-30T12:47:18;5.43;;;3.40;;
49758;SDS011;70329;45.524;10.194;2023-07-30T12:49:44;5.65;;;3.42;;
49758;SDS011;70329;45.524;10.194;2023-07-30T12:52:09;4.65;;;3.67;;
49758;SDS011;70329;45.524;10.194;2023-07-30T12:54:36;6.80;;;4.18;;
49758;SDS011;70329;45.524;10.194;2023-07-30T12:57:03;7.03;;;3.80;;
49758;SDS011;70329;45.524;10.194;2023-07-30T12:59:31;7.22;;;4.28;;
49758;SDS011;70329;45.524;10.194;2023-07-30T13:01:56;5.03;;;3.70;;
49758;SDS011;70329;45.524;10.194;2023-07-30T13:04:23;4.75;;;3.50;;
49758;SDS011;70329;45.524;10.194;2023-07-30T13:06:51;6.50;;;3.80;;
49758;SDS011;70329;45.524;10.194;2023-07-30T13:09:17;6.03;;;3.22;;
49758;SDS011;70329;45.524;10.194;2023-07-30T13:11:42;5.40;;;3.70;;
49758;SDS011;70329;45.524;10.194;2023-07-30T13:14:08;5.30;;;3.70;;
49758;SDS011;70329;45.524;10.194;2023-07-30T13:16:33;4.30;;;3.65;;
49758;SDS011;70329;45.524;10.194;2023-07-30T13:18:58;5.68;;;3.85;;
49758;SDS011;70329;45.524;10.194;2023-07-30T13:21:24;6.15;;;3.55;;
49758;SDS011;70329;45.524;10.194;2023-07-30T13:23:50;5.80;;;3.63;;
49758;SDS011;70329;45.524;10.194;2023-07-30T13:26:15;6.80;;;3.65;;
49758;SDS011;70329;45.524;10.194;2023-07-30T13:28:41;5.60;;;4.00;;
49758;SDS011;70329;45.524;10.194;2023-07-30T13:31:06;5.75;;;3.67;;
49758;SDS011;70329;45.524;10.194;2023-07-30T13:33:32;8.27;;;4.20;;
49758;SDS011;70329;45.524;10.194;2023-07-30T13:35:57;6.03;;;3.95;;
49758;SDS011;70329;45.524;10.194;2023-07-30T13:38:22;4.78;;;3.85;;
49758;SDS011;70329;45.524;10.194;2023-07-30T13:40:50;8.38;;;3.72;;
49758;SDS011;70329;45.524;10.194;2023-07-30T13:43:15;7.70;;;4.00;;
49758;SDS011;70329;45.524;10.194;2023-07-30T13:45:41;6.90;;;4.38;;
49758;SDS011;70329;45.524;10.194;2023-07-30T13:48:06;7.03;;;3.78;;
49758;SDS011;70329;45.524;10.194;2023-07-30T13:50:32;7.97;;;4.10;;
49758;SDS011;70329;45.524;10.194;2023-07-30T13:52:57;4.45;;;3.60;;
49758;SDS011;70329;45.524;10.194;2023-07-30T13:55:23;5.78;;;3.67;;
49758;SDS011;70329;45.524;10.194;2023-07-30T13:57:48;4.68;;;4.10;;
49758;SDS011;70329;45.524;10.194;2023-07-30T14:00:13;8.98;;;3.65;;
49758;SDS011;70329;45.524;10.194;2023-07-30T14:02:39;4.53;;;3.60;;
49758;SDS011;70329;45.524;10.194;2023-07-30T14:05:04;5.68;;;3.92;;
49758;SDS011;70329;45.524;10.194;2023-07-30T14:07:30;4.05;;;3.50;;
49758;SDS011;70329;45.524;10.194;2023-07-30T14:09:55;8.27;;;3.78;;
49758;SDS011;70329;45.524;10.194;2023-07-30T14:12:20;5.13;;;4.00;;
49758;SDS011;70329;45.524;10.194;2023-07-30T14:14:46;7.00;;;3.92;;
49758;SDS011;70329;45.524;10.194;2023-07-30T14:17:11;6.63;;;4.03;;
49758;SDS011;70329;45.524;10.194;2023-07-30T14:19:38;5.88;;;3.80;;
49758;SDS011;70329;45.524;10.194;2023-07-30T14:22:05;6.18;;;4.20;;
49758;SDS011;70329;45.524;10.194;2023-07-30T14:24:32;8.93;;;4.28;;
49758;SDS011;70329;45.524;10.194;2023-07-30T14:26:57;8.23;;;4.38;;
49758;SDS011;70329;45.524;10.194;2023-07-30T14:29:23;12.75;;;4.32;;
49758;SDS011;70329;45.524;10.194;2023-07-30T14:31:50;7.15;;;5.65;;
49758;SDS011;70329;45.524;10.194;2023-07-30T14:34:16;8.63;;;4.72;;
49758;SDS011;70329;45.524;10.194;2023-07-30T14:36:41;7.07;;;4.13;;
49758;SDS011;70329;45.524;10.194;2023-07-30T14:39:07;4.97;;;3.90;;